createdAt,value
2018-11-03T00:00:47.734Z,88.57
2018-11-03T00:03:52.134Z,88.16
2018-11-03T00:06:56.226Z,88.48
2018-11-03T00:10:00.309Z,87.84
2018-11-03T00:13:04.642Z,87.93
2018-11-03T00:16:09.076Z,88.54
2018-11-03T00:19:13.167Z,88.39
2018-11-03T00:22:17.266Z,88.27
2018-11-03T00:25:21.335Z,88.32
2018-11-03T00:28:25.430Z,88.28
2018-11-03T00:31:29.510Z,88.53
2018-11-03T00:34:34.165Z,88.41
2018-11-03T00:37:38.254Z,87.98
2018-11-03T00:40:42.361Z,88.46
2018-11-03T00:43:46.437Z,88.01
2018-11-03T00:46:50.530Z,88.43
2018-11-03T00:49:54.647Z,88.45
2018-11-03T00:52:58.705Z,88.49
2018-11-03T00:56:02.789Z,88.45
2018-11-03T00:59:06.875Z,88.40
2018-11-03T01:02:10.974Z,88.43
2018-11-03T01:05:15.133Z,88.30
2018-11-03T01:08:19.553Z,87.99
2018-11-03T01:11:23.637Z,88.30
2018-11-03T01:14:27.505Z,88.01
2018-11-03T01:17:31.593Z,88.33
2018-11-03T01:20:36.040Z,88.23
2018-11-03T01:23:40.188Z,88.54
2018-11-03T01:26:44.437Z,88.46
2018-11-03T01:29:48.518Z,88.51
2018-11-03T01:32:52.611Z,88.58
2018-11-03T01:35:56.698Z,88.67
2018-11-03T01:39:00.797Z,88.23
2018-11-03T01:42:05.222Z,88.47
2018-11-03T01:45:09.677Z,88.62
2018-11-03T01:48:14.093Z,88.51
2018-11-03T01:51:18.182Z,88.52
2018-11-03T01:54:22.367Z,88.19
2018-11-03T01:57:26.414Z,88.47
2018-11-03T02:00:30.850Z,88.36
2018-11-03T02:03:34.932Z,88.30
2018-11-03T02:06:39.019Z,88.28
2018-11-03T02:09:43.093Z,88.58
2018-11-03T02:12:47.201Z,88.65
2018-11-03T02:15:51.276Z,88.57
2018-11-03T02:18:55.357Z,88.45
2018-11-03T02:21:59.462Z,88.24
2018-11-03T02:25:04.110Z,88.34
2018-11-03T02:28:08.261Z,88.49
2018-11-03T02:31:12.346Z,88.67
2018-11-03T02:34:16.792Z,88.21
2018-11-03T02:37:20.880Z,88.53
2018-11-03T02:40:24.949Z,88.48
2018-11-03T02:43:29.046Z,88.31
2018-11-03T02:46:33.125Z,88.51
2018-11-03T02:49:37.233Z,88.84
2018-11-03T02:52:41.612Z,88.48
2018-11-03T02:55:45.691Z,89.00
2018-11-03T02:58:49.794Z,88.25
2018-11-03T03:01:54.208Z,88.34
2018-11-03T03:04:58.301Z,88.44
2018-11-03T03:08:02.233Z,88.77
2018-11-03T03:11:06.381Z,88.33
2018-11-03T03:14:10.806Z,88.44
2018-11-03T03:17:14.689Z,88.85
2018-11-03T03:20:19.106Z,88.58
2018-11-03T03:23:23.190Z,88.57
2018-11-03T03:26:27.272Z,88.53
2018-11-03T03:29:31.398Z,88.80
2018-11-03T03:32:35.413Z,88.81
2018-11-03T03:35:39.512Z,88.61
2018-11-03T03:38:43.589Z,88.71
2018-11-03T03:41:47.681Z,89.24
2018-11-03T03:44:51.753Z,89.26
2018-11-03T03:47:55.847Z,89.21
2018-11-03T03:50:59.931Z,89.22
2018-11-03T03:54:04.157Z,88.97
2018-11-03T03:57:08.314Z,88.61
2018-11-03T04:00:12.898Z,88.61
2018-11-03T04:03:16.774Z,88.49
2018-11-03T04:06:20.883Z,88.68
2018-11-03T04:09:24.957Z,89.12
2018-11-03T04:12:29.078Z,89.05
2018-11-03T04:15:33.161Z,88.93
2018-11-03T04:18:37.233Z,89.36
2018-11-03T04:21:41.325Z,88.91
2018-11-03T04:24:45.450Z,88.95
2018-11-03T04:27:49.528Z,88.79
2018-11-03T04:30:53.940Z,88.83
2018-11-03T04:33:58.177Z,89.15
2018-11-03T04:37:02.260Z,89.46
2018-11-03T04:40:07.942Z,89.27
2018-11-03T04:43:12.029Z,89.64
2018-11-03T04:46:16.100Z,89.26
2018-11-03T04:49:20.185Z,89.40
2018-11-03T04:52:24.279Z,89.13
2018-11-03T04:55:28.346Z,89.16
2018-11-03T04:58:32.767Z,89.43
2018-11-03T05:01:36.855Z,89.57
2018-11-03T05:04:40.930Z,89.36
2018-11-03T05:07:45.018Z,89.23
2018-11-03T05:10:49.099Z,89.57
2018-11-03T05:13:53.182Z,89.33
2018-11-03T05:16:57.265Z,89.42
2018-11-03T05:20:01.376Z,89.42
2018-11-03T05:23:05.749Z,89.30
2018-11-03T05:26:09.829Z,89.52
2018-11-03T05:29:13.902Z,89.84
2018-11-03T05:32:18.319Z,89.24
2018-11-03T05:35:22.401Z,89.66
2018-11-03T05:38:26.494Z,89.49
2018-11-03T05:41:30.705Z,89.38
2018-11-03T05:44:35.097Z,89.52
2018-11-03T05:47:39.179Z,89.58
2018-11-03T05:50:43.270Z,89.62
2018-11-03T05:53:47.673Z,89.56
2018-11-03T05:56:51.753Z,89.93
2018-11-03T05:59:55.835Z,89.58
2018-11-03T06:03:00.246Z,89.56
2018-11-03T06:06:04.324Z,89.54
2018-11-03T06:09:09.490Z,89.49
2018-11-03T06:12:13.577Z,89.73
2018-11-03T06:15:17.990Z,89.59
2018-11-03T06:18:22.080Z,89.57
2018-11-03T06:21:26.249Z,89.47
2018-11-03T06:24:30.325Z,89.40
2018-11-03T06:27:34.714Z,89.84
2018-11-03T06:30:38.590Z,89.78
2018-11-03T06:33:42.694Z,89.61
2018-11-03T06:36:46.909Z,89.79
2018-11-03T06:39:51.010Z,89.53
2018-11-03T06:42:55.096Z,89.81
2018-11-03T06:45:59.186Z,89.78
2018-11-03T06:49:08.565Z,89.82
2018-11-03T06:52:13.074Z,89.92
2018-11-03T06:55:17.051Z,89.54
2018-11-03T06:58:21.450Z,89.49
2018-11-03T07:01:25.538Z,89.72
2018-11-03T07:04:29.592Z,89.77
2018-11-03T07:07:33.678Z,89.81
2018-11-03T07:10:44.487Z,89.94
2018-11-03T07:13:48.574Z,90.00
2018-11-03T07:16:52.658Z,89.87
2018-11-03T07:19:56.541Z,89.97
2018-11-03T07:23:00.618Z,90.22
2018-11-03T07:26:04.598Z,90.15
2018-11-03T07:29:08.669Z,90.56
2018-11-03T07:32:12.791Z,90.52
2018-11-03T07:35:17.395Z,91.08
2018-11-03T07:38:21.485Z,90.97
2018-11-03T07:41:25.613Z,90.78
2018-11-03T07:44:29.635Z,91.26
2018-11-03T07:47:33.721Z,91.45
2018-11-03T07:50:37.596Z,91.58
2018-11-03T07:53:41.672Z,91.91
2018-11-03T07:56:46.078Z,92.31
2018-11-03T07:59:50.166Z,92.95
2018-11-03T08:02:54.275Z,92.62
2018-11-03T08:05:58.359Z,93.20
2018-11-03T08:09:02.998Z,93.61
2018-11-03T08:12:06.978Z,93.40
2018-11-03T08:15:11.653Z,93.03
2018-11-03T08:18:15.721Z,92.93
2018-11-03T08:21:19.794Z,92.85
2018-11-03T08:24:23.882Z,92.30
2018-11-03T08:27:27.958Z,92.52
2018-11-03T08:30:32.048Z,92.33
2018-11-03T08:33:35.946Z,91.96
2018-11-03T08:36:40.047Z,91.75
2018-11-03T08:39:44.269Z,91.15
2018-11-03T08:42:48.277Z,90.57
2018-11-03T08:45:52.352Z,90.34
2018-11-03T08:48:56.474Z,90.17
2018-11-03T08:52:00.510Z,90.34
2018-11-03T08:55:04.946Z,90.06
2018-11-03T08:58:08.996Z,90.21
2018-11-03T09:01:13.402Z,90.06
2018-11-03T09:04:17.487Z,90.15
2018-11-03T09:07:21.368Z,89.91
2018-11-03T09:10:25.785Z,89.59
2018-11-03T09:13:29.862Z,89.56
2018-11-03T09:16:33.926Z,89.99
2018-11-03T09:19:38.005Z,89.93
2018-11-03T09:22:42.200Z,89.78
2018-11-03T09:25:46.197Z,89.96
2018-11-03T09:28:50.284Z,89.59
2018-11-03T09:31:54.418Z,89.93
2018-11-03T09:34:58.454Z,89.79
2018-11-03T09:38:02.540Z,89.61
2018-11-03T09:41:06.617Z,90.19
2018-11-03T09:44:10.690Z,89.82
2018-11-03T09:47:14.855Z,90.18
2018-11-03T09:50:19.295Z,90.00
2018-11-03T09:53:23.356Z,89.92
2018-11-03T09:56:27.490Z,89.93
2018-11-03T09:59:31.502Z,90.02
2018-11-03T10:02:35.601Z,90.08
2018-11-03T10:05:39.670Z,89.85
2018-11-03T10:08:43.803Z,89.84
2018-11-03T10:11:47.869Z,89.84
2018-11-03T10:14:51.945Z,89.98
2018-11-03T10:17:56.345Z,89.76
2018-11-03T10:21:00.413Z,89.87
2018-11-03T10:24:05.525Z,90.04
2018-11-03T10:27:09.614Z,89.71
2018-11-03T10:30:14.717Z,89.68
2018-11-03T10:33:18.800Z,89.99
2018-11-03T10:36:23.213Z,89.76
2018-11-03T10:39:27.299Z,90.01
2018-11-03T10:42:31.712Z,90.21
2018-11-03T10:45:35.789Z,89.85
2018-11-03T10:48:40.286Z,90.07
2018-11-03T10:51:44.605Z,90.11
2018-11-03T10:54:48.694Z,90.12
2018-11-03T10:57:53.123Z,90.17
2018-11-03T11:01:02.504Z,89.94
2018-11-03T11:04:12.176Z,89.84
2018-11-03T11:07:22.081Z,90.36
2018-11-03T11:10:32.295Z,90.16
2018-11-03T11:13:37.533Z,89.97
2018-11-03T11:16:42.114Z,90.02
2018-11-03T11:19:46.143Z,90.26
2018-11-03T11:22:50.228Z,89.99
2018-11-03T11:25:54.102Z,90.35
2018-11-03T11:28:58.192Z,90.09
2018-11-03T11:32:02.612Z,90.28
2018-11-03T11:35:06.739Z,89.81
2018-11-03T11:38:11.509Z,90.04
2018-11-03T11:41:15.723Z,89.93
2018-11-03T11:44:19.637Z,89.91
2018-11-03T11:47:23.505Z,89.90
2018-11-03T11:50:27.433Z,89.57
2018-11-03T11:53:33.149Z,89.72
2018-11-03T11:56:37.263Z,89.94
2018-11-03T11:59:41.358Z,89.81
2018-11-03T12:02:45.518Z,89.75
2018-11-03T12:05:49.617Z,89.84
2018-11-03T12:08:53.714Z,89.65
2018-11-03T12:11:58.126Z,89.89
2018-11-03T12:15:02.218Z,89.73
2018-11-03T12:18:06.945Z,89.78
2018-11-03T12:21:11.352Z,90.04
2018-11-03T12:24:15.765Z,90.16
2018-11-03T12:27:20.203Z,89.54
2018-11-03T12:30:24.837Z,89.69
2018-11-03T12:33:29.286Z,90.06
2018-11-03T12:36:33.357Z,89.84
2018-11-03T12:39:37.440Z,89.97
2018-11-03T12:42:41.513Z,89.46
2018-11-03T12:45:45.623Z,89.20
2018-11-03T12:48:49.709Z,89.94
2018-11-03T12:51:53.878Z,89.43
2018-11-03T12:54:58.090Z,89.47
2018-11-03T12:58:02.189Z,89.64
2018-11-03T13:01:06.283Z,89.39
2018-11-03T13:04:10.444Z,89.82
2018-11-03T13:07:14.469Z,89.57
2018-11-03T13:10:18.581Z,89.31
2018-11-03T13:13:22.448Z,89.36
2018-11-03T13:16:26.350Z,89.03
2018-11-03T13:19:30.213Z,89.34
2018-11-03T13:22:34.113Z,89.43
2018-11-03T13:25:38.433Z,89.66
2018-11-03T13:28:42.316Z,89.02
2018-11-03T13:31:46.377Z,89.59
2018-11-03T13:34:50.389Z,89.38
2018-11-03T13:37:54.513Z,89.48
2018-11-03T13:40:58.443Z,89.35
2018-11-03T13:44:02.517Z,89.30
2018-11-03T13:47:07.358Z,89.23
2018-11-03T13:50:11.567Z,88.89
2018-11-03T13:53:15.493Z,88.78
2018-11-03T13:56:19.625Z,89.06
2018-11-03T13:59:23.522Z,89.14
2018-11-03T14:02:27.442Z,89.25
2018-11-03T14:05:31.340Z,89.54
2018-11-03T14:08:35.314Z,89.15
2018-11-03T14:11:39.653Z,88.90
2018-11-03T14:14:43.533Z,88.64
2018-11-03T14:17:47.427Z,88.55
2018-11-03T14:20:51.304Z,89.13
2018-11-03T14:23:55.189Z,88.69
2018-11-03T14:26:59.095Z,88.88
2018-11-03T14:30:03.247Z,88.52
2018-11-03T14:33:07.663Z,88.36
2018-11-03T14:36:11.634Z,88.50
2018-11-03T14:39:15.671Z,88.46
2018-11-03T14:42:19.766Z,88.33
2018-11-03T14:45:23.703Z,88.28
2018-11-03T14:48:27.997Z,88.38
2018-11-03T14:51:31.894Z,88.29
2018-11-03T14:54:35.779Z,87.64
2018-11-03T14:57:39.662Z,87.95
2018-11-03T15:00:43.571Z,88.06
2018-11-03T15:03:47.451Z,88.10
2018-11-03T15:06:51.342Z,87.50
2018-11-03T15:09:55.307Z,88.38
2018-11-03T15:12:59.556Z,87.80
2018-11-03T15:16:03.433Z,88.25
2018-11-03T15:19:07.472Z,87.37
2018-11-03T15:22:11.406Z,87.63
2018-11-03T15:25:15.451Z,87.59
2018-11-03T15:28:19.325Z,87.50
2018-11-03T15:31:23.205Z,87.59
2018-11-03T15:34:27.227Z,87.23
2018-11-03T15:37:31.281Z,88.04
2018-11-03T15:40:35.157Z,87.81
2018-11-03T15:43:39.129Z,87.92
2018-11-03T15:46:43.449Z,87.87
2018-11-03T15:49:47.351Z,87.37
2018-11-03T15:52:51.430Z,87.75
2018-11-03T15:55:55.293Z,87.65
2018-11-03T15:58:59.215Z,87.60
2018-11-03T16:02:03.445Z,87.95
2018-11-03T16:05:07.356Z,87.54
2018-11-03T16:08:11.778Z,87.60
2018-11-03T16:11:15.680Z,87.97
2018-11-03T16:14:19.545Z,87.95
2018-11-03T16:17:23.430Z,88.45
2018-11-03T16:20:27.327Z,88.47
2018-11-03T16:23:31.218Z,88.08
2018-11-03T16:26:35.424Z,88.30
2018-11-03T16:29:39.315Z,88.77
2018-11-03T16:32:44.026Z,88.75
2018-11-03T16:35:48.315Z,88.18
2018-11-03T16:38:52.527Z,88.68
2018-11-03T16:41:56.424Z,88.24
2018-11-03T16:45:00.321Z,88.93
2018-11-03T16:48:04.466Z,88.52
2018-11-03T16:51:08.678Z,88.62
2018-11-03T16:54:12.551Z,88.49
2018-11-03T16:57:16.436Z,88.69
2018-11-03T17:00:20.683Z,88.57
2018-11-03T17:03:24.585Z,89.13
2018-11-03T17:06:28.474Z,89.05
2018-11-03T17:09:32.398Z,89.04
2018-11-03T17:12:36.399Z,88.93
2018-11-03T17:15:40.401Z,88.92
2018-11-03T17:18:44.319Z,88.92
2018-11-03T17:21:48.685Z,89.18
2018-11-03T17:24:52.599Z,89.27
2018-11-03T17:27:56.979Z,89.50
2018-11-03T17:31:00.860Z,89.48
2018-11-03T17:34:05.300Z,89.45
2018-11-03T17:37:09.187Z,89.47
2018-11-03T17:40:13.524Z,89.51
2018-11-03T17:43:17.597Z,89.43
2018-11-03T17:46:21.472Z,89.39
2018-11-03T17:49:25.349Z,89.28
2018-11-03T17:52:29.246Z,89.50
2018-11-03T17:55:33.128Z,89.94
2018-11-03T17:58:37.002Z,89.81
2018-11-03T18:01:40.942Z,89.55
2018-11-03T18:04:45.311Z,89.75
2018-11-03T18:07:49.181Z,90.20
2018-11-03T18:10:53.105Z,90.04
2018-11-03T18:13:56.982Z,89.55
2018-11-03T18:17:00.867Z,90.13
2018-11-03T18:20:05.855Z,90.26
2018-11-03T18:23:09.733Z,89.92
2018-11-03T18:26:13.721Z,89.92
2018-11-03T18:29:17.743Z,89.83
2018-11-03T18:32:21.609Z,90.01
2018-11-03T18:35:25.691Z,90.25
2018-11-03T18:38:29.633Z,90.12
2018-11-03T18:41:33.538Z,90.16
2018-11-03T18:44:37.594Z,89.94
2018-11-03T18:47:41.481Z,89.77
2018-11-03T18:50:45.622Z,89.95
2018-11-03T18:53:49.522Z,89.86
2018-11-03T18:56:53.418Z,89.88
2018-11-03T18:59:57.291Z,90.28
2018-11-03T19:03:01.175Z,89.87
2018-11-03T19:06:05.728Z,89.89
2018-11-03T19:09:10.051Z,89.83
2018-11-03T19:12:14.423Z,90.38
2018-11-03T19:15:18.334Z,90.06
2018-11-03T19:18:22.214Z,90.05
2018-11-03T19:21:26.082Z,90.33
2018-11-03T19:24:30.160Z,90.32
2018-11-03T19:27:34.037Z,90.39
2018-11-03T19:30:38.010Z,90.38
2018-11-03T19:33:41.940Z,90.24
2018-11-03T19:36:45.986Z,90.39
2018-11-03T19:39:49.862Z,90.25
2018-11-03T19:42:53.749Z,90.48
2018-11-03T19:45:57.637Z,89.99
2018-11-03T19:49:01.515Z,90.33
2018-11-03T19:52:05.738Z,90.32
2018-11-03T19:55:09.950Z,89.63
2018-11-03T19:58:13.930Z,90.17
2018-11-03T20:01:17.821Z,90.12
2018-11-03T20:04:21.749Z,90.38
2018-11-03T20:07:25.971Z,90.60
2018-11-03T20:10:29.923Z,90.45
2018-11-03T20:13:33.796Z,90.53
2018-11-03T20:16:37.682Z,90.24
2018-11-03T20:19:41.566Z,90.31
2018-11-03T20:22:45.527Z,90.14
2018-11-03T20:25:49.748Z,89.82
2018-11-03T20:28:53.625Z,90.15
2018-11-03T20:31:57.568Z,90.23
2018-11-03T20:35:01.593Z,90.14
2018-11-03T20:38:06.245Z,89.85
2018-11-03T20:41:10.351Z,90.09
2018-11-03T20:44:14.264Z,90.06
2018-11-03T20:47:18.138Z,90.16
2018-11-03T20:50:22.051Z,90.15
2018-11-03T20:53:25.993Z,90.51
2018-11-03T20:56:29.868Z,90.26
2018-11-03T20:59:33.746Z,90.11
2018-11-03T21:02:37.625Z,90.18
2018-11-03T21:05:41.516Z,90.30
2018-11-03T21:08:45.390Z,90.49
2018-11-03T21:11:49.269Z,90.36
2018-11-03T21:14:53.518Z,90.52
2018-11-03T21:17:57.394Z,90.14
2018-11-03T21:21:01.286Z,90.17
2018-11-03T21:24:05.407Z,90.12
2018-11-03T21:27:10.539Z,90.33
2018-11-03T21:30:15.095Z,90.36
2018-11-03T21:33:19.457Z,89.82
2018-11-03T21:36:23.442Z,90.27
2018-11-03T21:39:27.314Z,90.24
2018-11-03T21:42:31.402Z,89.91
2018-11-03T21:45:35.362Z,89.85
2018-11-03T21:48:39.226Z,90.31
2018-11-03T21:51:43.308Z,89.96
2018-11-03T21:54:47.173Z,90.08
2018-11-03T21:57:51.071Z,90.39
2018-11-03T22:00:54.945Z,90.55
2018-11-03T22:04:05.154Z,90.04
2018-11-03T22:07:09.025Z,90.50
2018-11-03T22:10:12.907Z,90.06
2018-11-03T22:13:16.780Z,90.01
2018-11-03T22:16:20.658Z,90.23
2018-11-03T22:19:24.537Z,90.28
2018-11-03T22:22:28.749Z,90.61
2018-11-03T22:25:32.962Z,90.35
2018-11-03T22:28:36.958Z,90.49
2018-11-03T22:31:40.846Z,90.31
2018-11-03T22:34:44.921Z,90.10
2018-11-03T22:37:48.798Z,90.22
2018-11-03T22:40:52.687Z,90.30
2018-11-03T22:43:56.569Z,90.17
2018-11-03T22:47:00.797Z,90.20
2018-11-03T22:50:04.790Z,89.83
2018-11-03T22:53:08.989Z,90.37
2018-11-03T22:56:12.874Z,90.36
2018-11-03T22:59:16.970Z,90.34
2018-11-03T23:02:21.098Z,90.12
2018-11-03T23:05:25.305Z,90.21
2018-11-03T23:08:29.193Z,90.61
2018-11-03T23:11:33.076Z,90.64
2018-11-03T23:14:36.989Z,90.48
2018-11-03T23:17:41.057Z,90.27
2018-11-03T23:20:44.923Z,90.19
2018-11-03T23:23:48.811Z,90.28
2018-11-03T23:26:52.682Z,90.28
2018-11-03T23:29:56.704Z,90.47
2018-11-03T23:33:00.650Z,90.36
2018-11-03T23:36:04.913Z,90.59
2018-11-03T23:39:10.334Z,90.82
2018-11-03T23:42:14.214Z,91.11
2018-11-03T23:45:18.654Z,91.37
2018-11-03T23:48:22.711Z,91.16
2018-11-03T23:51:26.814Z,91.58
2018-11-03T23:54:30.709Z,91.39
2018-11-03T23:57:34.598Z,91.67
